Time;durP1;ratioP1;P1;durP2;ratioP2;P2;SDS_P1;SDS_P2;PMS_P1;PMS_P2;Temp;Humidity;BMP_temperature;BMP_pressure;BME280_temperature;BME280_humidity;BME280_pressure;Samples;Min_cycle;Max_cycle;Signal;HPM_P1;HPM_P2
2021/07/20 00:02:31;;;;;;;25.48;18.25;;;18.40;99.90;;;;;;5053229;28;20394;-66
2021/07/20 00:04:56;;;;;;;26.75;18.10;;;18.20;99.90;;;;;;5052267;28;20033;-67
2021/07/20 00:07:22;;;;;;;26.05;17.98;;;18.20;99.90;;;;;;5052384;28;20438;-66
2021/07/20 00:09:48;;;;;;;27.08;18.83;;;18.20;99.90;;;;;;5052005;28;20542;-66
2021/07/20 00:12:13;;;;;;;30.95;18.25;;;18.20;99.90;;;;;;5052414;28;20505;-66
2021/07/20 00:14:39;;;;;;;21.88;17.65;;;18.20;99.90;;;;;;5051177;28;20033;-66
2021/07/20 00:17:04;;;;;;;26.30;17.40;;;18.10;99.90;;;;;;5052263;28;20100;-66
2021/07/20 00:19:32;;;;;;;20.83;17.05;;;18.10;99.90;;;;;;5052053;28;20378;-66
2021/07/20 00:21:57;;;;;;;22.88;17.33;;;18.00;99.90;;;;;;5051523;28;20580;-67
2021/07/20 00:24:23;;;;;;;29.00;18.92;;;17.90;99.90;;;;;;5052651;28;20025;-67
2021/07/20 00:26:49;;;;;;;22.80;17.63;;;17.80;99.90;;;;;;5051042;28;20029;-67
2021/07/20 00:29:14;;;;;;;26.80;19.30;;;17.80;99.90;;;;;;5052008;28;20546;-67
2021/07/20 00:31:40;;;;;;;27.38;18.77;;;17.80;99.90;;;;;;5051301;28;20363;-66
2021/07/20 00:34:06;;;;;;;23.98;18.48;;;17.80;99.90;;;;;;5052059;28;21839;-66
2021/07/20 00:36:33;;;;;;;22.77;17.30;;;17.70;99.90;;;;;;5051970;28;20032;-67
2021/07/20 00:38:58;;;;;;;27.17;17.88;;;17.60;99.90;;;;;;5051361;28;20040;-67
2021/07/20 00:41:24;;;;;;;26.40;18.98;;;17.60;99.90;;;;;;5051155;28;20462;-66
2021/07/20 00:43:50;;;;;;;26.58;18.75;;;17.60;99.90;;;;;;5049502;28;20095;-67
2021/07/20 00:46:15;;;;;;;25.02;18.60;;;17.60;99.90;;;;;;5050984;28;20051;-67
2021/07/20 00:48:41;;;;;;;32.13;18.30;;;17.60;99.90;;;;;;5049394;28;20048;-67
2021/07/20 00:51:07;;;;;;;27.27;18.02;;;17.50;99.90;;;;;;5048016;28;20032;-67
2021/07/20 00:53:33;;;;;;;23.48;17.38;;;17.40;99.90;;;;;;5049737;28;20108;-67
2021/07/20 00:55:59;;;;;;;25.95;17.42;;;17.40;99.90;;;;;;5050207;28;20144;-67
2021/07/20 00:58:25;;;;;;;22.10;16.85;;;17.30;99.90;;;;;;5050364;28;20052;-67
2021/07/20 01:00:52;;;;;;;24.38;17.80;;;17.20;99.90;;;;;;5049704;28;20511;-67
2021/07/20 01:03:18;;;;;;;21.80;17.45;;;17.20;99.90;;;;;;5050663;28;20394;-67
2021/07/20 01:05:45;;;;;;;24.08;17.25;;;17.10;99.90;;;;;;5049916;28;20029;-67
2021/07/20 01:08:11;;;;;;;26.15;18.38;;;17.00;99.90;;;;;;5050353;28;20033;-67
2021/07/20 01:10:40;;;;;;;23.35;17.48;;;17.00;99.90;;;;;;5046761;28;20028;-67
2021/07/20 01:13:07;;;;;;;21.92;17.05;;;17.00;99.90;;;;;;5050072;28;20405;-67
2021/07/20 01:15:34;;;;;;;22.27;17.17;;;16.90;99.90;;;;;;5049735;28;20029;-67
2021/07/20 01:18:01;;;;;;;27.13;18.13;;;16.90;99.90;;;;;;5049905;28;20540;-67
2021/07/20 01:20:29;;;;;;;24.55;18.45;;;16.90;99.90;;;;;;5049990;28;20135;-66
2021/07/20 01:23:20;;;;;;;23.30;17.15;;;16.80;99.90;;;;;;5048894;28;20029;-66
2021/07/20 01:25:47;;;;;;;24.55;18.60;;;16.70;99.90;;;;;;5049150;28;20537;-67
2021/07/20 01:28:18;;;;;;;24.00;18.00;;;16.70;99.90;;;;;;5049854;28;20025;-66
2021/07/20 01:30:50;;;;;;;33.72;18.13;;;16.70;99.90;;;;;;5048829;28;20032;-66
2021/07/20 01:33:18;;;;;;;25.75;18.02;;;16.70;99.90;;;;;;5048363;28;20056;-67
2021/07/20 01:35:50;;;;;;;21.88;16.83;;;16.70;99.90;;;;;;5049323;28;20449;-67
2021/07/20 01:38:18;;;;;;;26.30;17.85;;;16.60;99.90;;;;;;5049427;28;20091;-66
2021/07/20 01:40:44;;;;;;;24.25;18.10;;;16.60;99.90;;;;;;5048561;28;20043;-67
2021/07/20 01:43:11;;;;;;;24.95;18.67;;;16.50;99.90;;;;;;5049612;28;20056;-66
2021/07/20 01:45:39;;;;;;;26.17;17.85;;;16.60;99.90;;;;;;5048919;28;20032;-67
2021/07/20 01:48:06;;;;;;;22.85;17.38;;;16.60;99.90;;;;;;5049379;28;20075;-67
2021/07/20 01:50:35;;;;;;;23.90;16.98;;;16.60;99.90;;;;;;5049133;28;20041;-66
2021/07/20 01:53:02;;;;;;;25.58;18.08;;;16.50;99.90;;;;;;5050394;28;20033;-67
2021/07/20 01:55:28;;;;;;;25.95;18.05;;;16.40;99.90;;;;;;5052382;28;20124;-67
2021/07/20 01:57:55;;;;;;;25.55;18.08;;;16.40;99.90;;;;;;5053112;28;20368;-67
2021/07/20 02:00:22;;;;;;;23.30;18.13;;;16.30;99.90;;;;;;5055182;28;20040;-67
2021/07/20 02:03:14;;;;;;;26.23;17.80;;;16.30;99.90;;;;;;5053826;28;20056;-67
2021/07/20 02:08:34;;;;;;;23.90;17.15;;;16.10;99.90;;;;;;5048946;28;20048;-67
2021/07/20 02:11:11;;;;;;;24.05;17.75;;;16.00;99.90;;;;;;5054943;28;20086;-67
2021/07/20 02:13:43;;;;;;;23.65;18.00;;;16.00;99.90;;;;;;5054220;28;20024;-67
2021/07/20 02:16:11;;;;;;;22.73;16.95;;;16.00;99.90;;;;;;5054934;28;20040;-67
2021/07/20 02:18:40;;;;;;;24.75;18.58;;;15.90;99.90;;;;;;5053207;28;20045;-67
2021/07/20 02:21:08;;;;;;;23.13;16.13;;;15.90;99.90;;;;;;5054656;28;20498;-67
2021/07/20 02:23:35;;;;;;;24.33;17.65;;;15.90;99.90;;;;;;5054479;28;20036;-67
2021/07/20 02:26:01;;;;;;;27.90;17.80;;;15.90;99.90;;;;;;5052675;28;20037;-67
2021/07/20 02:28:28;;;;;;;28.02;18.98;;;15.90;99.90;;;;;;5054008;28;20052;-67
2021/07/20 02:30:55;;;;;;;23.13;17.25;;;15.90;99.90;;;;;;5053846;28;20095;-67
2021/07/20 02:33:23;;;;;;;22.65;17.60;;;15.90;99.90;;;;;;5054007;28;20060;-67
2021/07/20 02:35:50;;;;;;;21.60;16.90;;;15.80;99.90;;;;;;5046249;28;20182;-67
2021/07/20 02:38:18;;;;;;;23.25;16.55;;;15.80;99.90;;;;;;5054267;28;20447;-67
2021/07/20 02:40:46;;;;;;;24.23;16.55;;;15.80;99.90;;;;;;5053557;28;20067;-67
2021/07/20 02:43:13;;;;;;;28.88;18.88;;;15.80;99.90;;;;;;5053923;28;20032;-67
2021/07/20 02:45:39;;;;;;;27.20;17.45;;;15.70;99.90;;;;;;5053686;28;20025;-67
2021/07/20 02:48:06;;;;;;;26.15;17.55;;;15.70;99.90;;;;;;5054167;28;20025;-66
2021/07/20 02:50:33;;;;;;;26.38;17.95;;;15.60;99.90;;;;;;5053607;28;20417;-67
2021/07/20 02:53:00;;;;;;;23.75;16.70;;;15.70;99.90;;;;;;5053583;28;20021;-66
2021/07/20 02:55:28;;;;;;;24.80;16.92;;;15.70;99.90;;;;;;5053968;28;20041;-66
2021/07/20 02:57:53;;;;;;;20.63;15.60;;;15.70;99.90;;;;;;5052606;28;20508;-67
2021/07/20 03:00:21;;;;;;;26.02;17.88;;;15.60;99.90;;;;;;5052913;28;20064;-66
2021/07/20 03:02:48;;;;;;;30.17;18.17;;;15.60;99.90;;;;;;5052158;28;20439;-67
2021/07/20 03:05:16;;;;;;;24.10;16.98;;;15.50;99.90;;;;;;5053521;28;20485;-66
2021/07/20 03:07:55;;;;;;;25.40;18.40;;;15.50;99.90;;;;;;5052853;28;20052;-66
2021/07/20 03:10:24;;;;;;;23.50;17.08;;;15.40;99.90;;;;;;5053780;28;20029;-66
2021/07/20 03:12:51;;;;;;;23.20;17.27;;;15.40;99.90;;;;;;5053084;28;20489;-67
2021/07/20 03:15:17;;;;;;;19.48;15.45;;;15.40;99.90;;;;;;5053915;28;20036;-67
2021/07/20 03:17:45;;;;;;;23.48;17.75;;;15.30;99.90;;;;;;5052339;28;20029;-67
2021/07/20 03:20:12;;;;;;;23.50;16.58;;;15.30;99.90;;;;;;5053248;28;20021;-66
2021/07/20 03:22:40;;;;;;;25.67;17.42;;;15.20;99.90;;;;;;5052866;28;20108;-66
2021/07/20 03:25:06;;;;;;;24.30;17.77;;;15.20;99.90;;;;;;5053247;28;20104;-66
2021/07/20 03:27:35;;;;;;;25.70;18.67;;;15.10;99.90;;;;;;5053110;28;20382;-67
2021/07/20 03:30:01;;;;;;;26.02;18.98;;;15.10;99.90;;;;;;5052696;28;20474;-67
2021/07/20 03:32:28;;;;;;;28.58;17.90;;;15.10;99.90;;;;;;5053232;28;20036;-67
2021/07/20 03:34:55;;;;;;;26.95;17.58;;;15.10;99.90;;;;;;5052297;28;20128;-67
2021/07/20 03:37:22;;;;;;;24.02;16.60;;;15.20;99.90;;;;;;5053475;28;20040;-67
2021/07/20 03:39:48;;;;;;;27.65;17.63;;;15.10;99.90;;;;;;5051899;28;20112;-67
2021/07/20 03:42:15;;;;;;;26.13;17.95;;;15.10;99.90;;;;;;5052253;28;20032;-67
2021/07/20 03:44:41;;;;;;;24.38;16.02;;;15.10;99.90;;;;;;5052257;28;20045;-67
2021/07/20 03:47:08;;;;;;;21.48;16.38;;;15.10;99.90;;;;;;5053270;28;20031;-67
2021/07/20 03:49:34;;;;;;;23.92;16.52;;;15.00;99.90;;;;;;5052403;28;20083;-67
2021/07/20 03:52:02;;;;;;;26.05;17.85;;;15.00;99.90;;;;;;5052281;28;20021;-67
2021/07/20 03:54:31;;;;;;;24.60;17.55;;;15.00;99.90;;;;;;5052799;28;20060;-67
2021/07/20 03:56:57;;;;;;;22.48;16.45;;;15.00;99.90;;;;;;5052345;28;20717;-67
2021/07/20 03:59:26;;;;;;;24.10;16.38;;;15.00;99.90;;;;;;5052766;28;20533;-67
2021/07/20 04:01:52;;;;;;;25.40;17.20;;;15.00;99.90;;;;;;5052011;28;20037;-67
2021/07/20 04:04:20;;;;;;;27.35;17.95;;;15.00;99.90;;;;;;5052731;28;20103;-67
2021/07/20 04:06:48;;;;;;;24.58;17.13;;;15.00;99.90;;;;;;5051834;28;20040;-67
2021/07/20 04:09:14;;;;;;;20.58;15.90;;;15.00;99.90;;;;;;5044464;28;20120;-67
2021/07/20 04:11:42;;;;;;;26.88;16.40;;;15.00;99.90;;;;;;5051963;28;20032;-67
2021/07/20 04:14:11;;;;;;;21.92;16.42;;;15.00;99.90;;;;;;5052209;28;20516;-67
2021/07/20 04:16:37;;;;;;;22.70;16.97;;;15.00;99.90;;;;;;5051614;28;20375;-67
2021/07/20 04:19:03;;;;;;;25.33;16.30;;;15.00;99.90;;;;;;5051266;28;20028;-66
2021/07/20 04:21:29;;;;;;;21.48;15.60;;;15.00;99.90;;;;;;5051792;28;20098;-66
2021/07/20 04:23:55;;;;;;;24.52;16.73;;;15.00;99.90;;;;;;5051398;28;20053;-67
2021/07/20 04:26:22;;;;;;;21.15;17.00;;;15.10;99.90;;;;;;5052392;28;20075;-66
2021/07/20 04:28:48;;;;;;;22.23;16.30;;;15.10;99.90;;;;;;5051543;28;20473;-67
2021/07/20 04:31:18;;;;;;;23.58;16.02;;;15.10;99.90;;;;;;5052058;28;20029;-67
2021/07/20 04:33:48;;;;;;;19.47;15.63;;;15.10;99.90;;;;;;5043907;28;20079;-67
2021/07/20 04:36:14;;;;;;;23.70;16.48;;;15.20;99.90;;;;;;5052333;28;20041;-66
2021/07/20 04:38:41;;;;;;;23.60;16.70;;;15.20;99.90;;;;;;5050571;28;20035;-67
2021/07/20 04:41:07;;;;;;;25.15;17.05;;;15.30;99.90;;;;;;5050964;28;20044;-67
2021/07/20 04:43:33;;;;;;;22.70;15.45;;;15.40;99.90;;;;;;5052011;28;20103;-66
2021/07/20 04:46:00;;;;;;;21.95;16.13;;;15.40;99.90;;;;;;5050643;28;20099;-67
2021/07/20 04:48:26;;;;;;;22.23;14.80;;;15.50;99.90;;;;;;5049630;28;20319;-66
2021/07/20 04:50:54;;;;;;;23.15;16.17;;;15.50;99.90;;;;;;5050440;28;20029;-67
2021/07/20 04:53:21;;;;;;;27.98;17.45;;;15.60;99.90;;;;;;5051849;28;20050;-67
2021/07/20 04:55:49;;;;;;;21.23;15.20;;;15.70;99.90;;;;;;5042548;28;20051;-66
2021/07/20 04:58:16;;;;;;;25.23;16.73;;;15.70;99.90;;;;;;5051490;28;20056;-66
2021/07/20 05:00:49;;;;;;;24.23;16.10;;;15.80;99.90;;;;;;5050729;28;20032;-67
2021/07/20 05:03:17;;;;;;;23.48;16.55;;;15.90;99.90;;;;;;5051497;28;20065;-68
2021/07/20 05:05:43;;;;;;;21.25;14.95;;;16.00;99.90;;;;;;5049390;28;20059;-68
2021/07/20 05:08:13;;;;;;;30.08;15.80;;;16.10;99.90;;;;;;5051229;28;20036;-65
2021/07/20 05:10:43;;;;;;;23.48;15.95;;;16.10;99.90;;;;;;5050084;28;20122;-65
2021/07/20 05:13:09;;;;;;;23.55;15.00;;;16.20;99.90;;;;;;5051669;28;20056;-65
2021/07/20 05:15:35;;;;;;;21.83;14.77;;;16.20;99.90;;;;;;5050735;28;20060;-68
2021/07/20 05:18:01;;;;;;;23.55;15.07;;;16.30;99.90;;;;;;5043185;28;20048;-68
2021/07/20 05:20:28;;;;;;;19.90;15.02;;;16.40;99.90;;;;;;5050523;28;20029;-68
2021/07/20 05:22:55;;;;;;;22.42;15.85;;;16.50;99.90;;;;;;5050258;28;20028;-67
2021/07/20 05:25:21;;;;;;;22.45;15.77;;;16.50;99.90;;;;;;5049253;28;20155;-68
2021/07/20 05:27:54;;;;;;;20.52;15.40;;;16.60;99.90;;;;;;5049724;28;20550;-68
2021/07/20 05:30:20;;;;;;;24.33;15.15;;;16.70;99.90;;;;;;5051153;28;20120;-68
2021/07/20 05:32:47;;;;;;;25.73;15.35;;;16.80;99.90;;;;;;5049897;28;20029;-68
2021/07/20 05:35:16;;;;;;;21.15;14.82;;;16.70;99.90;;;;;;5050926;28;20035;-68
2021/07/20 05:37:42;;;;;;;21.10;15.13;;;16.80;99.90;;;;;;5050407;28;20025;-68
2021/07/20 05:40:15;;;;;;;21.25;14.20;;;16.80;99.90;;;;;;5050705;28;20110;-68
2021/07/20 05:42:45;;;;;;;18.90;14.93;;;16.80;99.90;;;;;;5046880;28;20037;-68
2021/07/20 05:45:13;;;;;;;21.65;14.50;;;16.90;99.90;;;;;;5048449;28;20037;-67
2021/07/20 05:47:49;;;;;;;22.83;14.98;;;17.00;99.90;;;;;;5051405;28;20033;-67
2021/07/20 05:50:16;;;;;;;28.00;14.75;;;17.00;99.90;;;;;;5050511;28;20040;-67
2021/07/20 05:52:47;;;;;;;23.30;14.30;;;17.00;99.90;;;;;;5049569;28;20079;-67
2021/07/20 05:55:14;;;;;;;24.23;14.02;;;17.00;99.90;;;;;;5050529;28;20021;-67
2021/07/20 05:57:45;;;;;;;22.52;14.00;;;17.00;99.90;;;;;;5050875;28;20083;-67
2021/07/20 06:00:12;;;;;;;24.20;14.15;;;17.10;99.90;;;;;;5050630;28;20040;-67
2021/07/20 06:02:39;;;;;;;23.65;13.68;;;17.20;99.90;;;;;;5049532;28;20086;-66
2021/07/20 06:05:12;;;;;;;23.75;15.18;;;17.40;99.90;;;;;;5050326;28;20025;-66
2021/07/20 06:07:38;;;;;;;25.65;13.75;;;17.50;99.90;;;;;;5050371;28;20347;-68
2021/07/20 06:10:05;;;;;;;20.92;14.00;;;17.60;99.90;;;;;;5049861;28;20159;-71
2021/07/20 06:12:31;;;;;;;19.17;13.45;;;17.60;99.90;;;;;;5050223;28;20021;-69
2021/07/20 06:14:59;;;;;;;21.65;15.15;;;17.60;99.90;;;;;;5049140;28;20033;-70
2021/07/20 06:17:25;;;;;;;22.30;15.07;;;17.60;99.90;;;;;;5049593;28;20525;-69
2021/07/20 06:19:52;;;;;;;17.85;13.30;;;17.60;99.90;;;;;;5048329;28;20033;-69
2021/07/20 06:22:22;;;;;;;18.95;12.57;;;17.70;99.90;;;;;;5050598;28;20033;-69
2021/07/20 06:24:48;;;;;;;23.73;14.20;;;17.70;99.90;;;;;;5049286;28;20100;-68
2021/07/20 06:27:16;;;;;;;22.50;14.48;;;17.90;99.90;;;;;;5050664;28;20061;-66
2021/07/20 06:29:50;;;;;;;22.33;14.23;;;18.00;99.90;;;;;;5050244;28;20036;-69
2021/07/20 06:32:18;;;;;;;17.50;12.30;;;18.00;99.90;;;;;;5042156;28;20056;-67
2021/07/20 06:34:44;;;;;;;22.80;12.80;;;18.10;99.90;;;;;;5049825;28;20020;-71
2021/07/20 06:37:10;;;;;;;21.05;13.77;;;18.10;99.90;;;;;;5049031;28;20036;-69
2021/07/20 06:39:37;;;;;;;24.80;14.70;;;18.20;99.90;;;;;;5050112;28;20079;-69
2021/07/20 06:42:03;;;;;;;26.77;14.77;;;18.30;99.90;;;;;;5051743;28;20616;-68
2021/07/20 06:44:30;;;;;;;20.73;14.55;;;18.50;99.90;;;;;;5053906;28;20029;-68
2021/07/20 06:46:59;;;;;;;21.40;14.02;;;18.60;99.90;;;;;;5052916;28;20111;-69
2021/07/20 06:49:26;;;;;;;18.92;13.07;;;18.60;99.90;;;;;;5052499;28;20442;-69
2021/07/20 06:51:52;;;;;;;19.70;14.20;;;18.60;99.90;;;;;;5053362;28;20033;-69
2021/07/20 06:54:18;;;;;;;18.27;13.25;;;18.70;99.90;;;;;;5053767;28;20462;-68
2021/07/20 06:56:57;;;;;;;22.63;14.00;;;18.70;99.90;;;;;;5052217;28;20079;-71
2021/07/20 06:59:24;;;;;;;19.83;13.45;;;18.70;99.60;;;;;;5054219;28;20032;-69
2021/07/20 07:01:51;;;;;;;19.10;12.57;;;18.80;99.30;;;;;;5052985;28;20037;-70
2021/07/20 07:04:25;;;;;;;19.92;13.65;;;18.90;99.50;;;;;;5054026;28;20106;-69
2021/07/20 07:06:55;;;;;;;19.40;12.45;;;18.90;99.40;;;;;;5052952;28;20029;-70
2021/07/20 07:09:26;;;;;;;25.17;13.88;;;19.00;99.30;;;;;;5045727;28;20033;-69
2021/07/20 07:11:52;;;;;;;21.05;13.40;;;19.10;98.70;;;;;;5053048;28;20033;-69
2021/07/20 07:14:19;;;;;;;19.08;13.10;;;19.30;98.20;;;;;;5053322;28;20054;-69
2021/07/20 07:16:46;;;;;;;18.52;12.10;;;19.30;97.70;;;;;;5053106;28;20039;-71
2021/07/20 07:19:15;;;;;;;17.70;12.50;;;19.40;98.40;;;;;;5053334;28;20071;-68
2021/07/20 07:21:44;;;;;;;15.25;11.32;;;19.50;97.30;;;;;;5053405;28;20028;-69
2021/07/20 07:24:14;;;;;;;24.77;12.30;;;19.60;97.30;;;;;;5052458;28;20032;-69
2021/07/20 07:26:41;;;;;;;17.45;12.10;;;19.70;96.50;;;;;;5053098;28;20350;-69
2021/07/20 07:29:14;;;;;;;26.60;12.80;;;19.80;96.20;;;;;;5052684;28;20877;-69
2021/07/20 07:31:44;;;;;;;18.00;11.63;;;19.90;95.60;;;;;;5052652;28;20021;-69
2021/07/20 07:34:11;;;;;;;17.08;11.60;;;19.90;95.60;;;;;;5052752;28;20386;-71
2021/07/20 07:36:38;;;;;;;17.20;11.88;;;20.10;95.30;;;;;;5052439;28;20124;-69
2021/07/20 07:39:07;;;;;;;18.85;12.02;;;20.20;94.70;;;;;;5052494;28;20674;-69
2021/07/20 07:41:38;;;;;;;22.77;13.50;;;20.20;95.10;;;;;;5052668;28;20033;-69
2021/07/20 07:44:10;;;;;;;17.83;12.30;;;20.40;93.30;;;;;;5044506;28;20168;-70
2021/07/20 07:46:38;;;;;;;17.42;12.52;;;20.40;93.30;;;;;;5053168;28;20071;-69
2021/07/20 07:49:04;;;;;;;16.80;11.45;;;20.40;93.30;;;;;;5052847;28;20039;-69
2021/07/20 07:51:30;;;;;;;17.30;12.00;;;20.40;93.60;;;;;;5052989;28;20029;-69
2021/07/20 07:53:59;;;;;;;15.18;11.20;;;20.50;93.30;;;;;;5051579;28;20031;-69
2021/07/20 07:56:29;;;;;;;18.15;12.05;;;20.60;93.40;;;;;;5053777;28;20118;-69
2021/07/20 07:58:55;;;;;;;;;;;20.70;91.80;;;;;;5051636;28;20021;-69
2021/07/20 08:01:22;;;;;;;20.00;11.98;;;20.70;92.30;;;;;;5053424;28;19916;-69
2021/07/20 08:03:50;;;;;;;17.52;12.38;;;20.70;91.90;;;;;;5052133;28;20091;-71
2021/07/20 08:06:21;;;;;;;16.58;10.75;;;20.60;92.00;;;;;;5053137;28;20086;-69
2021/07/20 08:08:51;;;;;;;15.52;10.85;;;20.70;92.30;;;;;;5052657;28;20462;-71
2021/07/20 08:11:18;;;;;;;18.48;10.65;;;20.90;91.00;;;;;;5053014;28;20060;-69
2021/07/20 08:13:44;;;;;;;19.35;11.23;;;20.90;90.50;;;;;;5052431;28;20509;-69
2021/07/20 08:16:13;;;;;;;20.25;11.68;;;20.90;90.40;;;;;;5052444;28;20066;-69
2021/07/20 08:18:40;;;;;;;19.00;9.90;;;21.00;90.20;;;;;;5049791;28;20048;-69
2021/07/20 08:21:07;;;;;;;19.92;11.43;;;21.10;87.80;;;;;;5051870;28;20343;-69
2021/07/20 08:23:34;;;;;;;24.40;11.70;;;21.10;88.70;;;;;;5052179;28;20060;-69
2021/07/20 08:26:32;;;;;;;16.58;10.68;;;21.20;88.20;;;;;;5051790;28;20052;-69
2021/07/20 08:29:04;;;;;;;14.40;10.05;;;21.30;85.30;;;;;;5045570;28;20037;-69
2021/07/20 08:31:36;;;;;;;19.83;10.48;;;21.30;86.30;;;;;;5051904;28;20047;-69
2021/07/20 08:34:04;;;;;;;19.48;11.07;;;21.50;85.80;;;;;;5051054;28;20450;-69
2021/07/20 08:36:35;;;;;;;14.43;9.82;;;21.60;84.70;;;;;;5051798;28;20028;-69
2021/07/20 08:39:03;;;;;;;13.10;9.60;;;21.70;84.70;;;;;;5050899;28;20036;-69
2021/07/20 08:41:59;;;;;;;15.23;10.43;;;21.60;82.80;;;;;;5044143;28;20033;-69
2021/07/20 08:45:10;;;;;;;18.02;11.40;;;21.70;82.50;;;;;;5051463;28;20029;-69
2021/07/20 08:48:04;;;;;;;20.75;11.48;;;21.70;84.00;;;;;;5043234;28;20048;-69
2021/07/20 08:50:55;;;;;;;18.83;11.00;;;21.70;83.80;;;;;;5051758;28;20024;-69
2021/07/20 08:53:32;;;;;;;16.35;10.93;;;21.80;82.40;;;;;;5051487;28;20087;-69
2021/07/20 08:56:00;;;;;;;16.40;10.27;;;21.80;84.30;;;;;;5051126;28;20045;-69
2021/07/20 08:58:42;;;;;;;14.23;9.82;;;21.70;82.90;;;;;;5051178;28;20117;-69
2021/07/20 09:01:22;;;;;;;14.07;9.85;;;21.60;84.40;;;;;;5049985;28;20405;-67
2021/07/20 09:04:15;;;;;;;15.23;10.55;;;21.60;83.20;;;;;;5050662;28;20057;-70
2021/07/20 09:06:53;;;;;;;20.63;10.98;;;21.60;82.70;;;;;;5046086;28;20036;-69
2021/07/20 09:09:47;;;;;;;19.70;11.20;;;21.60;80.90;;;;;;5050510;28;20116;-69
2021/07/20 09:12:36;;;;;;;19.98;10.77;;;21.90;81.20;;;;;;5043601;28;20033;-69
2021/07/20 09:15:11;;;;;;;21.27;10.43;;;22.00;78.90;;;;;;5046398;28;20025;-69
2021/07/20 09:17:49;;;;;;;12.63;9.57;;;22.20;78.10;;;;;;5051251;28;20065;-69
2021/07/20 09:20:20;;;;;;;17.30;10.60;;;22.20;78.70;;;;;;5050826;28;20090;-69
2021/07/20 09:22:54;;;;;;;15.52;10.30;;;22.30;76.90;;;;;;5051192;28;20036;-69
2021/07/20 09:25:32;;;;;;;19.75;10.30;;;22.40;75.50;;;;;;5050687;28;20048;-69
2021/07/20 09:28:18;;;;;;;16.92;10.95;;;22.20;75.20;;;;;;5049889;28;20033;-69
2021/07/20 09:30:47;;;;;;;21.33;12.00;;;22.20;75.60;;;;;;5051254;28;20028;-69
2021/07/20 09:33:43;;;;;;;14.35;11.20;;;22.20;75.60;;;;;;5050085;28;20024;-69
2021/07/20 09:36:17;;;;;;;14.52;10.77;;;22.40;74.90;;;;;;5050096;28;20041;-69
2021/07/20 09:38:55;;;;;;;18.60;11.10;;;22.50;76.40;;;;;;5051420;28;20020;-69
2021/07/20 09:41:47;;;;;;;15.02;10.77;;;22.60;74.30;;;;;;5050754;28;20035;-69
2021/07/20 09:44:39;;;;;;;19.23;11.43;;;22.70;75.70;;;;;;5049616;28;20617;-69
2021/07/20 09:47:14;;;;;;;16.35;11.10;;;22.80;74.50;;;;;;5045167;28;20032;-67
2021/07/20 09:50:18;;;;;;;16.65;11.35;;;23.00;73.70;;;;;;5050504;28;20029;-68
2021/07/20 09:53:02;;;;;;;18.55;11.75;;;23.20;72.00;;;;;;4992578;28;20039;-67
2021/07/20 09:56:09;;;;;;;19.83;12.68;;;23.40;72.60;;;;;;4997204;28;20050;-67
2021/07/20 09:58:43;;;;;;;23.05;11.80;;;23.60;71.50;;;;;;4992450;28;20113;-67
2021/07/20 10:01:29;;;;;;;17.88;12.10;;;23.30;70.90;;;;;;5007872;28;20093;-68
2021/07/20 10:04:13;;;;;;;19.95;12.80;;;23.10;71.40;;;;;;5002484;28;20499;-70
2021/07/20 10:06:48;;;;;;;18.83;12.10;;;22.90;71.50;;;;;;5009346;28;20104;-66
2021/07/20 10:09:42;;;;;;;18.33;12.05;;;23.00;71.40;;;;;;5006230;28;20768;-66
2021/07/20 10:12:24;;;;;;;16.40;11.57;;;23.00;71.90;;;;;;4983676;28;20399;-64
2021/07/20 10:15:15;;;;;;;16.05;11.85;;;23.20;71.80;;;;;;4996369;28;20122;-66
2021/07/20 10:18:02;;;;;;;24.80;12.88;;;23.40;71.50;;;;;;4993746;28;20034;-66
2021/07/20 10:20:35;;;;;;;19.40;12.57;;;23.60;69.80;;;;;;4993155;28;20077;-67
2021/07/20 10:23:08;;;;;;;18.40;12.27;;;23.60;68.90;;;;;;5012527;28;20036;-67
2021/07/20 10:25:55;;;;;;;16.00;11.70;;;23.60;69.40;;;;;;5053416;28;20029;-66
2021/07/20 10:28:50;;;;;;;18.20;12.68;;;23.80;69.20;;;;;;5054397;28;20036;-66
2021/07/20 10:31:52;;;;;;;15.98;12.45;;;24.10;69.30;;;;;;5052147;28;20035;-66
2021/07/20 10:34:27;;;;;;;21.67;13.07;;;24.00;68.70;;;;;;5048689;28;20029;-67
2021/07/20 10:36:56;;;;;;;17.02;12.18;;;23.90;67.80;;;;;;5047645;28;20501;-67
2021/07/20 10:39:26;;;;;;;15.75;12.95;;;24.00;68.00;;;;;;5052886;28;20466;-67
2021/07/20 10:42:26;;;;;;;18.67;12.50;;;24.20;66.90;;;;;;5053771;28;20577;-67
2021/07/20 10:45:05;;;;;;;19.73;12.65;;;24.20;66.90;;;;;;5053639;28;20045;-67
2021/07/20 10:47:37;;;;;;;15.93;11.93;;;24.40;66.10;;;;;;5053485;28;20039;-67
2021/07/20 10:50:08;;;;;;;17.38;12.55;;;24.70;65.70;;;;;;5053273;28;20029;-67
2021/07/20 10:52:58;;;;;;;16.15;12.45;;;24.60;64.80;;;;;;5053772;28;20025;-67
2021/07/20 10:55:37;;;;;;;21.30;13.35;;;24.40;65.40;;;;;;5054006;28;20037;-67
2021/07/20 10:58:27;;;;;;;17.93;12.97;;;24.40;65.60;;;;;;5053015;28;20025;-66
2021/07/20 11:01:09;;;;;;;18.60;13.07;;;24.60;66.70;;;;;;5052405;28;20040;-67
2021/07/20 11:03:47;;;;;;;17.98;13.43;;;24.70;65.00;;;;;;5049668;28;20033;-67
2021/07/20 11:06:16;;;;;;;18.80;13.05;;;24.40;64.90;;;;;;5052545;28;20073;-67
2021/07/20 11:08:44;;;;;;;20.43;12.77;;;24.20;66.10;;;;;;5053100;28;20463;-66
2021/07/20 11:11:18;;;;;;;16.80;12.57;;;24.00;65.60;;;;;;5052931;28;20025;-66
2021/07/20 11:13:47;;;;;;;17.08;12.50;;;23.80;66.30;;;;;;5052757;28;20040;-66
2021/07/20 11:16:14;;;;;;;20.88;12.27;;;23.70;66.70;;;;;;5051841;28;20871;-66
2021/07/20 11:18:41;;;;;;;21.33;13.30;;;23.80;67.40;;;;;;5053874;28;20066;-66
2021/07/20 11:21:10;;;;;;;16.17;12.40;;;24.10;66.10;;;;;;5052937;28;20045;-66
2021/07/20 11:23:43;;;;;;;20.48;12.25;;;24.50;64.80;;;;;;5054432;28;20037;-66
2021/07/20 11:26:10;;;;;;;15.90;12.02;;;25.00;64.60;;;;;;5052987;28;20036;-66
2021/07/20 11:28:38;;;;;;;18.45;12.40;;;25.30;63.40;;;;;;5052324;28;20079;-66
2021/07/20 11:31:09;;;;;;;21.88;12.70;;;25.70;61.70;;;;;;5052589;28;20124;-66
2021/07/20 11:33:49;;;;;;;16.05;12.77;;;25.80;61.70;;;;;;5053195;28;20029;-66
2021/07/20 11:36:20;;;;;;;16.95;12.60;;;25.80;61.50;;;;;;5052951;28;20104;-66
2021/07/20 11:38:48;;;;;;;19.67;12.57;;;25.80;61.30;;;;;;5053287;28;20032;-66
2021/07/20 11:41:49;;;;;;;16.52;12.27;;;25.80;60.60;;;;;;5052512;28;20029;-66
2021/07/20 11:44:26;;;;;;;16.52;12.38;;;25.90;59.80;;;;;;5032703;28;20112;-66
2021/07/20 11:47:08;;;;;;;16.17;12.45;;;26.10;58.90;;;;;;5053109;28;20363;-66
2021/07/20 11:49:39;;;;;;;18.00;12.45;;;26.20;59.80;;;;;;5053291;28;20025;-66
2021/07/20 11:52:10;;;;;;;19.40;12.75;;;26.40;58.70;;;;;;5052262;28;20033;-66
2021/07/20 11:55:01;;;;;;;19.00;12.38;;;26.50;58.20;;;;;;5053756;28;20047;-66
2021/07/20 11:57:51;;;;;;;17.70;13.18;;;26.40;58.70;;;;;;5031176;28;20068;-66
2021/07/20 12:00:39;;;;;;;16.85;12.15;;;25.80;59.40;;;;;;5050316;28;20698;-66
2021/07/20 12:03:23;;;;;;;17.75;13.13;;;25.30;60.50;;;;;;5052067;28;20044;-66
2021/07/20 12:06:01;;;;;;;17.55;12.38;;;25.10;60.20;;;;;;5043784;28;20041;-66
2021/07/20 12:09:23;;;;;;;18.17;12.40;;;25.10;61.40;;;;;;5052679;28;20033;-66
2021/07/20 12:11:52;;;;;;;19.20;12.90;;;25.30;60.00;;;;;;5005586;28;20101;-66
2021/07/20 12:14:19;;;;;;;19.20;12.85;;;25.50;60.00;;;;;;5005879;28;20026;-66
2021/07/20 12:16:46;;;;;;;19.38;12.75;;;25.70;58.80;;;;;;5027670;28;20418;-66
2021/07/20 12:19:18;;;;;;;19.63;13.20;;;26.00;57.90;;;;;;5051491;28;20068;-67
2021/07/20 12:21:46;;;;;;;15.25;12.38;;;26.10;57.80;;;;;;5052346;28;20021;-66
2021/07/20 12:24:15;;;;;;;18.02;12.75;;;26.20;57.30;;;;;;5051715;28;20037;-66
2021/07/20 12:26:41;;;;;;;19.05;12.77;;;26.30;56.10;;;;;;5051918;28;20033;-66
2021/07/20 12:29:09;;;;;;;16.40;11.75;;;26.40;56.50;;;;;;5051369;28;20099;-66
2021/07/20 12:31:36;;;;;;;17.83;12.35;;;26.40;54.50;;;;;;5051590;28;20051;-66
2021/07/20 12:34:02;;;;;;;17.25;11.80;;;26.40;54.60;;;;;;5050826;28;20124;-67
2021/07/20 12:36:29;;;;;;;17.33;11.70;;;26.60;53.70;;;;;;5052218;28;20028;-66
2021/07/20 12:39:11;;;;;;;16.25;12.32;;;26.50;53.60;;;;;;5051320;28;20052;-66
2021/07/20 12:41:42;;;;;;;18.60;13.10;;;26.40;55.40;;;;;;5043524;28;20381;-66
2021/07/20 12:44:07;;;;;;;20.52;13.80;;;26.10;54.40;;;;;;5050595;28;20036;-66
2021/07/20 12:46:36;;;;;;;21.92;13.27;;;25.90;55.40;;;;;;5051379;28;20104;-66
2021/07/20 12:49:03;;;;;;;16.67;12.38;;;25.80;56.90;;;;;;5051110;28;20025;-66
2021/07/20 12:51:29;;;;;;;19.88;13.25;;;25.80;55.80;;;;;;5051127;28;20053;-66
2021/07/20 12:53:55;;;;;;;15.70;11.10;;;25.90;54.90;;;;;;5052148;28;20065;-66